sensor_id;sensor_type;location;lat;lon;timestamp;temperature;humidity
21811;DHT22;11067;48.788;9.208;2024-03-02T00:02:01;8.40;99.90
21811;DHT22;11067;48.788;9.208;2024-03-02T00:04:26;8.30;99.90
21811;DHT22;11067;48.788;9.208;2024-03-02T00:06:53;8.30;99.90
21811;DHT22;11067;48.788;9.208;2024-03-02T00:09:21;8.20;99.90
21811;DHT22;11067;48.788;9.208;2024-03-02T00:11:47;8.10;99.90
21811;DHT22;11067;48.788;9.208;2024-03-02T00:14:12;8.00;99.90
21811;DHT22;11067;48.788;9.208;2024-03-02T00:16:38;8.00;99.90
21811;DHT22;11067;48.788;9.208;2024-03-02T00:19:05;8.00;99.90
21811;DHT22;11067;48.788;9.208;2024-03-02T00:21:31;8.00;99.90
21811;DHT22;11067;48.788;9.208;2024-03-02T00:23:57;7.90;99.90
21811;DHT22;11067;48.788;9.208;2024-03-02T00:26:22;7.90;99.90
21811;DHT22;11067;48.788;9.208;2024-03-02T00:28:48;7.90;99.90
21811;DHT22;11067;48.788;9.208;2024-03-02T00:31:16;7.90;99.90
21811;DHT22;11067;48.788;9.208;2024-03-02T00:33:48;7.80;99.90
21811;DHT22;11067;48.788;9.208;2024-03-02T00:36:16;7.80;99.90
21811;DHT22;11067;48.788;9.208;2024-03-02T00:38:49;7.80;99.90
21811;DHT22;11067;48.788;9.208;2024-03-02T00:44:02;7.70;99.90
21811;DHT22;11067;48.788;9.208;2024-03-02T00:46:33;7.70;99.90
21811;DHT22;11067;48.788;9.208;2024-03-02T00:49:04;7.70;99.90
21811;DHT22;11067;48.788;9.208;2024-03-02T00:51:31;7.60;99.90
21811;DHT22;11067;48.788;9.208;2024-03-02T00:54:02;7.70;99.90
21811;DHT22;11067;48.788;9.208;2024-03-02T00:56:30;7.70;99.90
21811;DHT22;11067;48.788;9.208;2024-03-02T00:58:56;7.70;99.90
21811;DHT22;11067;48.788;9.208;2024-03-02T01:01:21;7.80;99.90
21811;DHT22;11067;48.788;9.208;2024-03-02T01:03:48;7.70;99.90
21811;DHT22;11067;48.788;9.208;2024-03-02T01:06:14;7.70;99.90
21811;DHT22;11067;48.788;9.208;2024-03-02T01:08:40;7.80;99.90
21811;DHT22;11067;48.788;9.208;2024-03-02T01:11:06;7.70;99.90
21811;DHT22;11067;48.788;9.208;2024-03-02T01:13:31;7.70;99.90
21811;DHT22;11067;48.788;9.208;2024-03-02T01:15:57;7.70;99.90
21811;DHT22;11067;48.788;9.208;2024-03-02T01:18:22;7.60;99.90
21811;DHT22;11067;48.788;9.208;2024-03-02T01:20:49;7.60;99.90
21811;DHT22;11067;48.788;9.208;2024-03-02T01:23:19;7.60;99.90
21811;DHT22;11067;48.788;9.208;2024-03-02T01:25:46;7.70;99.90
21811;DHT22;11067;48.788;9.208;2024-03-02T01:28:12;7.70;99.90
21811;DHT22;11067;48.788;9.208;2024-03-02T01:30:38;7.70;99.90
21811;DHT22;11067;48.788;9.208;2024-03-02T01:33:04;7.60;99.90
21811;DHT22;11067;48.788;9.208;2024-03-02T01:35:31;7.60;99.90
21811;DHT22;11067;48.788;9.208;2024-03-02T01:37:56;7.60;99.90
21811;DHT22;11067;48.788;9.208;2024-03-02T01:40:22;7.60;99.90
21811;DHT22;11067;48.788;9.208;2024-03-02T01:42:51;7.50;99.90
21811;DHT22;11067;48.788;9.208;2024-03-02T01:45:17;7.50;99.90
21811;DHT22;11067;48.788;9.208;2024-03-02T01:47:43;7.60;99.90
21811;DHT22;11067;48.788;9.208;2024-03-02T01:50:10;7.60;99.90
21811;DHT22;11067;48.788;9.208;2024-03-02T01:52:36;7.50;99.90
21811;DHT22;11067;48.788;9.208;2024-03-02T01:55:02;7.50;99.90
21811;DHT22;11067;48.788;9.208;2024-03-02T01:57:29;7.60;99.90
21811;DHT22;11067;48.788;9.208;2024-03-02T01:59:55;7.40;99.90
21811;DHT22;11067;48.788;9.208;2024-03-02T02:02:20;7.40;99.90
21811;DHT22;11067;48.788;9.208;2024-03-02T02:04:46;7.30;99.90
21811;DHT22;11067;48.788;9.208;2024-03-02T02:07:12;7.30;99.90
21811;DHT22;11067;48.788;9.208;2024-03-02T02:09:40;7.10;99.90
21811;DHT22;11067;48.788;9.208;2024-03-02T02:12:06;6.90;99.90
21811;DHT22;11067;48.788;9.208;2024-03-02T02:14:33;6.90;99.90
21811;DHT22;11067;48.788;9.208;2024-03-02T02:16:59;6.90;99.90
21811;DHT22;11067;48.788;9.208;2024-03-02T02:19:24;7.10;99.90
21811;DHT22;11067;48.788;9.208;2024-03-02T02:21:50;7.10;99.90
21811;DHT22;11067;48.788;9.208;2024-03-02T02:24:15;7.10;99.90
21811;DHT22;11067;48.788;9.208;2024-03-02T02:26:41;7.00;99.90
21811;DHT22;11067;48.788;9.208;2024-03-02T02:29:06;6.90;99.90
21811;DHT22;11067;48.788;9.208;2024-03-02T02:31:39;6.70;99.90
21811;DHT22;11067;48.788;9.208;2024-03-02T02:34:05;6.80;99.90
21811;DHT22;11067;48.788;9.208;2024-03-02T02:36:31;6.90;99.90
21811;DHT22;11067;48.788;9.208;2024-03-02T02:39:09;6.90;99.90
21811;DHT22;11067;48.788;9.208;2024-03-02T02:41:36;7.00;99.90
21811;DHT22;11067;48.788;9.208;2024-03-02T02:44:01;7.10;99.90
21811;DHT22;11067;48.788;9.208;2024-03-02T02:46:27;7.10;99.90
21811;DHT22;11067;48.788;9.208;2024-03-02T02:48:52;7.20;99.90
21811;DHT22;11067;48.788;9.208;2024-03-02T02:51:19;7.10;99.90
21811;DHT22;11067;48.788;9.208;2024-03-02T02:53:44;7.10;99.90
21811;DHT22;11067;48.788;9.208;2024-03-02T02:56:10;7.20;99.90
21811;DHT22;11067;48.788;9.208;2024-03-02T02:58:37;7.20;99.90
21811;DHT22;11067;48.788;9.208;2024-03-02T03:01:03;7.10;99.90
21811;DHT22;11067;48.788;9.208;2024-03-02T03:03:29;7.00;99.90
21811;DHT22;11067;48.788;9.208;2024-03-02T03:05:54;7.10;99.90
21811;DHT22;11067;48.788;9.208;2024-03-02T03:08:20;7.10;99.90
21811;DHT22;11067;48.788;9.208;2024-03-02T03:10:45;7.00;99.90
21811;DHT22;11067;48.788;9.208;2024-03-02T03:13:11;7.00;99.90
21811;DHT22;11067;48.788;9.208;2024-03-02T03:15:37;6.90;99.90
21811;DHT22;11067;48.788;9.208;2024-03-02T03:18:03;6.80;99.90
21811;DHT22;11067;48.788;9.208;2024-03-02T03:20:29;6.90;99.90
21811;DHT22;11067;48.788;9.208;2024-03-02T03:22:56;6.90;99.90
21811;DHT22;11067;48.788;9.208;2024-03-02T03:25:21;6.90;99.90
21811;DHT22;11067;48.788;9.208;2024-03-02T03:27:47;6.80;99.90
21811;DHT22;11067;48.788;9.208;2024-03-02T03:30:13;6.80;99.90
21811;DHT22;11067;48.788;9.208;2024-03-02T03:32:39;6.80;99.90
21811;DHT22;11067;48.788;9.208;2024-03-02T03:35:05;6.90;99.90
21811;DHT22;11067;48.788;9.208;2024-03-02T03:37:31;6.80;99.90
21811;DHT22;11067;48.788;9.208;2024-03-02T03:39:59;6.90;99.90
21811;DHT22;11067;48.788;9.208;2024-03-02T03:42:24;6.90;99.90
21811;DHT22;11067;48.788;9.208;2024-03-02T03:44:50;6.70;99.90
21811;DHT22;11067;48.788;9.208;2024-03-02T03:47:15;6.70;99.90
21811;DHT22;11067;48.788;9.208;2024-03-02T03:49:41;6.70;99.90
21811;DHT22;11067;48.788;9.208;2024-03-02T03:52:06;6.70;99.90
21811;DHT22;11067;48.788;9.208;2024-03-02T03:54:32;6.70;99.90
21811;DHT22;11067;48.788;9.208;2024-03-02T03:56:58;6.60;99.90
21811;DHT22;11067;48.788;9.208;2024-03-02T03:59:23;6.60;99.90
21811;DHT22;11067;48.788;9.208;2024-03-02T04:01:49;6.80;99.90
21811;DHT22;11067;48.788;9.208;2024-03-02T04:04:14;6.90;99.90
21811;DHT22;11067;48.788;9.208;2024-03-02T04:06:40;6.90;99.90
21811;DHT22;11067;48.788;9.208;2024-03-02T04:09:06;7.10;99.90
21811;DHT22;11067;48.788;9.208;2024-03-02T04:11:31;7.00;99.90
21811;DHT22;11067;48.788;9.208;2024-03-02T04:13:57;6.90;99.90
21811;DHT22;11067;48.788;9.208;2024-03-02T04:16:22;6.80;99.90
21811;DHT22;11067;48.788;9.208;2024-03-02T04:18:48;6.80;99.90
21811;DHT22;11067;48.788;9.208;2024-03-02T04:21:14;6.70;99.90
21811;DHT22;11067;48.788;9.208;2024-03-02T04:23:39;6.60;99.90
21811;DHT22;11067;48.788;9.208;2024-03-02T04:26:05;6.70;99.90
21811;DHT22;11067;48.788;9.208;2024-03-02T04:28:30;6.70;99.90
21811;DHT22;11067;48.788;9.208;2024-03-02T04:30:56;6.70;99.90
21811;DHT22;11067;48.788;9.208;2024-03-02T04:33:21;6.70;99.90
21811;DHT22;11067;48.788;9.208;2024-03-02T04:35:47;6.80;99.90
21811;DHT22;11067;48.788;9.208;2024-03-02T04:38:12;6.90;99.90
21811;DHT22;11067;48.788;9.208;2024-03-02T04:40:38;6.90;99.90
21811;DHT22;11067;48.788;9.208;2024-03-02T04:43:03;6.80;99.90
21811;DHT22;11067;48.788;9.208;2024-03-02T04:45:29;6.90;99.90
21811;DHT22;11067;48.788;9.208;2024-03-02T04:47:55;6.90;99.90
21811;DHT22;11067;48.788;9.208;2024-03-02T04:50:20;6.90;99.90
21811;DHT22;11067;48.788;9.208;2024-03-02T04:52:46;7.00;99.90
21811;DHT22;11067;48.788;9.208;2024-03-02T04:55:11;7.10;99.90
21811;DHT22;11067;48.788;9.208;2024-03-02T04:58:09;7.10;99.90
21811;DHT22;11067;48.788;9.208;2024-03-02T05:00:35;7.00;99.90
21811;DHT22;11067;48.788;9.208;2024-03-02T05:03:01;7.10;99.90
21811;DHT22;11067;48.788;9.208;2024-03-02T05:05:27;7.10;99.90
21811;DHT22;11067;48.788;9.208;2024-03-02T05:07:52;7.10;99.90
21811;DHT22;11067;48.788;9.208;2024-03-02T05:10:18;7.10;99.90
21811;DHT22;11067;48.788;9.208;2024-03-02T05:12:44;7.10;99.90
21811;DHT22;11067;48.788;9.208;2024-03-02T05:15:14;7.10;99.90
21811;DHT22;11067;48.788;9.208;2024-03-02T05:17:40;7.10;99.90
21811;DHT22;11067;48.788;9.208;2024-03-02T05:20:06;7.00;99.90
21811;DHT22;11067;48.788;9.208;2024-03-02T05:22:35;7.10;99.90
21811;DHT22;11067;48.788;9.208;2024-03-02T05:25:02;7.20;99.90
21811;DHT22;11067;48.788;9.208;2024-03-02T05:27:28;7.20;99.90
21811;DHT22;11067;48.788;9.208;2024-03-02T05:29:53;7.20;99.90
21811;DHT22;11067;48.788;9.208;2024-03-02T05:32:19;7.30;99.90
21811;DHT22;11067;48.788;9.208;2024-03-02T05:34:45;7.20;99.90
21811;DHT22;11067;48.788;9.208;2024-03-02T05:37:10;7.10;99.90
21811;DHT22;11067;48.788;9.208;2024-03-02T05:39:36;7.20;99.90
21811;DHT22;11067;48.788;9.208;2024-03-02T05:42:02;7.30;99.90
21811;DHT22;11067;48.788;9.208;2024-03-02T05:44:28;7.30;99.90
21811;DHT22;11067;48.788;9.208;2024-03-02T05:46:54;7.30;99.90
21811;DHT22;11067;48.788;9.208;2024-03-02T05:49:19;7.30;99.90
21811;DHT22;11067;48.788;9.208;2024-03-02T05:51:45;7.30;99.90
21811;DHT22;11067;48.788;9.208;2024-03-02T05:54:10;7.20;99.90
21811;DHT22;11067;48.788;9.208;2024-03-02T05:56:36;7.10;99.90
21811;DHT22;11067;48.788;9.208;2024-03-02T05:59:02;7.10;99.90
21811;DHT22;11067;48.788;9.208;2024-03-02T06:01:40;7.10;99.90
21811;DHT22;11067;48.788;9.208;2024-03-02T06:04:06;7.30;99.90
21811;DHT22;11067;48.788;9.208;2024-03-02T06:06:31;7.20;99.90
21811;DHT22;11067;48.788;9.208;2024-03-02T06:09:04;7.30;99.90
21811;DHT22;11067;48.788;9.208;2024-03-02T06:11:38;7.20;99.90
21811;DHT22;11067;48.788;9.208;2024-03-02T06:14:05;7.30;99.90
21811;DHT22;11067;48.788;9.208;2024-03-02T06:16:30;7.20;99.90
21811;DHT22;11067;48.788;9.208;2024-03-02T06:18:56;7.40;99.90
21811;DHT22;11067;48.788;9.208;2024-03-02T06:21:23;7.50;99.90
21811;DHT22;11067;48.788;9.208;2024-03-02T06:23:49;7.50;99.90
21811;DHT22;11067;48.788;9.208;2024-03-02T06:26:15;7.50;99.90
21811;DHT22;11067;48.788;9.208;2024-03-02T06:28:40;7.50;99.90
21811;DHT22;11067;48.788;9.208;2024-03-02T06:31:06;7.50;99.90
21811;DHT22;11067;48.788;9.208;2024-03-02T06:33:32;7.70;99.90
21811;DHT22;11067;48.788;9.208;2024-03-02T06:35:57;7.70;99.90
21811;DHT22;11067;48.788;9.208;2024-03-02T06:38:23;7.70;99.90
21811;DHT22;11067;48.788;9.208;2024-03-02T06:40:48;7.80;99.90
21811;DHT22;11067;48.788;9.208;2024-03-02T06:43:14;7.90;99.90
21811;DHT22;11067;48.788;9.208;2024-03-02T06:45:39;7.90;99.90
21811;DHT22;11067;48.788;9.208;2024-03-02T06:48:05;8.00;99.90
21811;DHT22;11067;48.788;9.208;2024-03-02T06:50:31;8.00;99.90
21811;DHT22;11067;48.788;9.208;2024-03-02T06:52:56;8.00;99.90
21811;DHT22;11067;48.788;9.208;2024-03-02T06:55:22;8.10;99.90
21811;DHT22;11067;48.788;9.208;2024-03-02T06:57:49;8.10;99.90
21811;DHT22;11067;48.788;9.208;2024-03-02T07:00:15;8.10;99.90
21811;DHT22;11067;48.788;9.208;2024-03-02T07:02:42;8.20;99.90
21811;DHT22;11067;48.788;9.208;2024-03-02T07:05:07;8.20;99.90
21811;DHT22;11067;48.788;9.208;2024-03-02T07:07:34;8.30;99.90
21811;DHT22;11067;48.788;9.208;2024-03-02T07:10:00;8.30;99.90
21811;DHT22;11067;48.788;9.208;2024-03-02T07:12:26;8.50;99.90
21811;DHT22;11067;48.788;9.208;2024-03-02T07:14:52;8.60;99.90
21811;DHT22;11067;48.788;9.208;2024-03-02T07:17:30;8.50;99.90
21811;DHT22;11067;48.788;9.208;2024-03-02T07:19:56;8.50;99.90
21811;DHT22;11067;48.788;9.208;2024-03-02T07:22:22;8.60;99.90
21811;DHT22;11067;48.788;9.208;2024-03-02T07:24:48;8.70;99.90
21811;DHT22;11067;48.788;9.208;2024-03-02T07:27:15;8.80;99.90
21811;DHT22;11067;48.788;9.208;2024-03-02T07:29:40;8.80;99.90
21811;DHT22;11067;48.788;9.208;2024-03-02T07:32:07;8.80;99.90
21811;DHT22;11067;48.788;9.208;2024-03-02T07:34:33;8.80;99.90
21811;DHT22;11067;48.788;9.208;2024-03-02T07:36:58;8.70;99.90
21811;DHT22;11067;48.788;9.208;2024-03-02T07:39:24;8.80;99.90
21811;DHT22;11067;48.788;9.208;2024-03-02T07:41:50;9.00;99.90
21811;DHT22;11067;48.788;9.208;2024-03-02T07:44:15;9.10;99.90
21811;DHT22;11067;48.788;9.208;2024-03-02T07:46:42;9.10;99.90
21811;DHT22;11067;48.788;9.208;2024-03-02T07:49:08;9.10;99.90
21811;DHT22;11067;48.788;9.208;2024-03-02T07:51:34;8.80;99.90
21811;DHT22;11067;48.788;9.208;2024-03-02T07:53:59;8.60;99.90
21811;DHT22;11067;48.788;9.208;2024-03-02T07:56:25;8.30;99.90
21811;DHT22;11067;48.788;9.208;2024-03-02T07:58:51;8.20;99.90
21811;DHT22;11067;48.788;9.208;2024-03-02T08:01:16;8.20;99.90
21811;DHT22;11067;48.788;9.208;2024-03-02T08:03:43;8.20;99.90
21811;DHT22;11067;48.788;9.208;2024-03-02T08:06:16;8.20;99.90
21811;DHT22;11067;48.788;9.208;2024-03-02T08:08:42;8.20;99.90
21811;DHT22;11067;48.788;9.208;2024-03-02T08:11:08;8.00;99.90
21811;DHT22;11067;48.788;9.208;2024-03-02T08:13:33;8.00;99.90
21811;DHT22;11067;48.788;9.208;2024-03-02T08:15:59;7.80;99.90
21811;DHT22;11067;48.788;9.208;2024-03-02T08:18:24;7.70;99.90
21811;DHT22;11067;48.788;9.208;2024-03-02T08:20:50;7.80;99.90
21811;DHT22;11067;48.788;9.208;2024-03-02T08:23:16;7.70;99.90
21811;DHT22;11067;48.788;9.208;2024-03-02T08:25:42;7.60;99.90
21811;DHT22;11067;48.788;9.208;2024-03-02T08:28:07;7.70;99.90
21811;DHT22;11067;48.788;9.208;2024-03-02T08:30:33;7.60;99.90
21811;DHT22;11067;48.788;9.208;2024-03-02T08:32:59;7.60;99.90
21811;DHT22;11067;48.788;9.208;2024-03-02T08:35:26;7.70;99.90
21811;DHT22;11067;48.788;9.208;2024-03-02T08:37:51;7.80;99.90
21811;DHT22;11067;48.788;9.208;2024-03-02T08:40:17;7.80;99.90
21811;DHT22;11067;48.788;9.208;2024-03-02T08:42:42;7.90;99.90
21811;DHT22;11067;48.788;9.208;2024-03-02T08:45:08;8.00;99.90
21811;DHT22;11067;48.788;9.208;2024-03-02T08:47:34;8.20;99.90
21811;DHT22;11067;48.788;9.208;2024-03-02T08:50:00;8.30;99.90
21811;DHT22;11067;48.788;9.208;2024-03-02T08:52:26;8.40;99.90
21811;DHT22;11067;48.788;9.208;2024-03-02T08:54:52;8.50;99.90
21811;DHT22;11067;48.788;9.208;2024-03-02T08:57:18;8.50;99.90
21811;DHT22;11067;48.788;9.208;2024-03-02T08:59:43;8.50;99.90
21811;DHT22;11067;48.788;9.208;2024-03-02T09:02:09;8.60;99.90
21811;DHT22;11067;48.788;9.208;2024-03-02T09:04:35;8.70;99.90
21811;DHT22;11067;48.788;9.208;2024-03-02T09:07:01;8.80;99.90
21811;DHT22;11067;48.788;9.208;2024-03-02T09:09:26;8.90;99.90
21811;DHT22;11067;48.788;9.208;2024-03-02T09:11:52;8.90;99.90
21811;DHT22;11067;48.788;9.208;2024-03-02T09:14:20;9.10;99.90
21811;DHT22;11067;48.788;9.208;2024-03-02T09:16:46;9.10;99.90
21811;DHT22;11067;48.788;9.208;2024-03-02T09:19:11;9.20;99.90
21811;DHT22;11067;48.788;9.208;2024-03-02T09:21:37;9.30;99.90
21811;DHT22;11067;48.788;9.208;2024-03-02T09:24:03;9.20;99.90
21811;DHT22;11067;48.788;9.208;2024-03-02T09:26:29;9.30;99.90
21811;DHT22;11067;48.788;9.208;2024-03-02T09:28:54;9.30;99.90
21811;DHT22;11067;48.788;9.208;2024-03-02T09:31:20;9.50;99.90
21811;DHT22;11067;48.788;9.208;2024-03-02T09:33:45;9.40;99.90
21811;DHT22;11067;48.788;9.208;2024-03-02T09:36:21;9.80;99.90
21811;DHT22;11067;48.788;9.208;2024-03-02T09:38:48;9.80;99.90
21811;DHT22;11067;48.788;9.208;2024-03-02T09:41:14;10.10;99.90
21811;DHT22;11067;48.788;9.208;2024-03-02T09:43:40;10.30;99.90
21811;DHT22;11067;48.788;9.208;2024-03-02T09:46:10;10.40;99.90
21811;DHT22;11067;48.788;9.208;2024-03-02T09:48:36;10.60;99.90
21811;DHT22;11067;48.788;9.208;2024-03-02T09:51:01;10.60;94.70
21811;DHT22;11067;48.788;9.208;2024-03-02T09:53:32;10.70;93.40
21811;DHT22;11067;48.788;9.208;2024-03-02T09:55:59;10.90;91.70
21811;DHT22;11067;48.788;9.208;2024-03-02T09:58:25;10.70;85.80
21811;DHT22;11067;48.788;9.208;2024-03-02T10:00:51;10.80;80.20
21811;DHT22;11067;48.788;9.208;2024-03-02T10:03:18;10.80;81.20
21811;DHT22;11067;48.788;9.208;2024-03-02T10:05:44;10.80;77.40
21811;DHT22;11067;48.788;9.208;2024-03-02T10:08:09;10.90;79.30
21811;DHT22;11067;48.788;9.208;2024-03-02T10:10:39;11.00;77.60
21811;DHT22;11067;48.788;9.208;2024-03-02T10:13:13;11.10;77.70
21811;DHT22;11067;48.788;9.208;2024-03-02T10:15:39;11.20;78.40
21811;DHT22;11067;48.788;9.208;2024-03-02T10:18:12;11.30;72.20
21811;DHT22;11067;48.788;9.208;2024-03-02T10:20:38;11.40;68.50
21811;DHT22;11067;48.788;9.208;2024-03-02T10:23:15;11.80;70.50
21811;DHT22;11067;48.788;9.208;2024-03-02T10:25:42;11.90;55.70
21811;DHT22;11067;48.788;9.208;2024-03-02T10:28:07;12.10;53.40
21811;DHT22;11067;48.788;9.208;2024-03-02T10:30:34;12.00;45.30
21811;DHT22;11067;48.788;9.208;2024-03-02T10:33:01;12.10;50.30
21811;DHT22;11067;48.788;9.208;2024-03-02T10:35:27;12.00;44.30
21811;DHT22;11067;48.788;9.208;2024-03-02T10:37:53;12.00;43.60
21811;DHT22;11067;48.788;9.208;2024-03-02T10:40:21;12.10;43.10
21811;DHT22;11067;48.788;9.208;2024-03-02T10:42:47;12.20;42.10
21811;DHT22;11067;48.788;9.208;2024-03-02T10:45:15;12.10;36.70
21811;DHT22;11067;48.788;9.208;2024-03-02T10:47:42;12.30;41.90
21811;DHT22;11067;48.788;9.208;2024-03-02T10:50:08;12.40;35.10
21811;DHT22;11067;48.788;9.208;2024-03-02T10:52:40;12.50;34.80
21811;DHT22;11067;48.788;9.208;2024-03-02T10:55:11;12.70;36.70
21811;DHT22;11067;48.788;9.208;2024-03-02T10:58:04;12.90;32.70
21811;DHT22;11067;48.788;9.208;2024-03-02T11:00:33;13.10;28.60
21811;DHT22;11067;48.788;9.208;2024-03-02T11:03:07;13.00;26.90
21811;DHT22;11067;48.788;9.208;2024-03-02T11:05:44;13.20;27.90
21811;DHT22;11067;48.788;9.208;2024-03-02T11:08:13;13.40;23.60
21811;DHT22;11067;48.788;9.208;2024-03-02T11:10:48;13.20;22.60
21811;DHT22;11067;48.788;9.208;2024-03-02T11:13:26;13.20;21.00
21811;DHT22;11067;48.788;9.208;2024-03-02T11:15:55;13.30;22.20
21811;DHT22;11067;48.788;9.208;2024-03-02T11:18:24;13.70;24.30
21811;DHT22;11067;48.788;9.208;2024-03-02T11:20:51;13.70;17.10
21811;DHT22;11067;48.788;9.208;2024-03-02T11:23:16;13.80;18.40
21811;DHT22;11067;48.788;9.208;2024-03-02T11:25:42;13.90;12.80
21811;DHT22;11067;48.788;9.208;2024-03-02T11:28:08;14.00;10.80
21811;DHT22;11067;48.788;9.208;2024-03-02T11:33:06;13.80;13.40
21811;DHT22;11067;48.788;9.208;2024-03-02T11:35:51;14.10;12.10
21811;DHT22;11067;48.788;9.208;2024-03-02T11:38:18;14.20;8.70
21811;DHT22;11067;48.788;9.208;2024-03-02T11:40:44;13.80;9.20
21811;DHT22;11067;48.788;9.208;2024-03-02T11:43:11;13.60;10.70
21811;DHT22;11067;48.788;9.208;2024-03-02T11:45:36;13.80;9.90
21811;DHT22;11067;48.788;9.208;2024-03-02T11:48:06;14.10;6.70
21811;DHT22;11067;48.788;9.208;2024-03-02T11:50:35;14.20;2.10
21811;DHT22;11067;48.788;9.208;2024-03-02T11:53:07;14.10;2.00
21811;DHT22;11067;48.788;9.208;2024-03-02T11:55:37;14.30;1.00
21811;DHT22;11067;48.788;9.208;2024-03-02T11:58:04;14.50;1.00
21811;DHT22;11067;48.788;9.208;2024-03-02T12:00:29;14.50;1.00
21811;DHT22;11067;48.788;9.208;2024-03-02T12:03:06;14.50;1.00
21811;DHT22;11067;48.788;9.208;2024-03-02T12:05:32;14.50;1.00
21811;DHT22;11067;48.788;9.208;2024-03-02T12:07:59;14.40;1.00
21811;DHT22;11067;48.788;9.208;2024-03-02T12:10:26;14.30;1.00
21811;DHT22;11067;48.788;9.208;2024-03-02T12:12:58;14.40;1.00
21811;DHT22;11067;48.788;9.208;2024-03-02T12:15:30;14.70;1.00
21811;DHT22;11067;48.788;9.208;2024-03-02T12:17:57;14.90;1.00
21811;DHT22;11067;48.788;9.208;2024-03-02T12:20:24;14.90;1.00
21811;DHT22;11067;48.788;9.208;2024-03-02T12:22:52;15.10;1.00
21811;DHT22;11067;48.788;9.208;2024-03-02T12:25:18;15.00;1.00
21811;DHT22;11067;48.788;9.208;2024-03-02T12:27:45;15.00;1.00
21811;DHT22;11067;48.788;9.208;2024-03-02T12:30:11;15.00;1.00
21811;DHT22;11067;48.788;9.208;2024-03-02T12:32:42;15.10;1.00
21811;DHT22;11067;48.788;9.208;2024-03-02T12:35:07;15.00;1.00
21811;DHT22;11067;48.788;9.208;2024-03-02T12:37:37;15.20;1.00
21811;DHT22;11067;48.788;9.208;2024-03-02T12:40:10;15.30;1.00
21811;DHT22;11067;48.788;9.208;2024-03-02T12:42:36;15.30;1.00
21811;DHT22;11067;48.788;9.208;2024-03-02T12:45:01;15.50;1.00
21811;DHT22;11067;48.788;9.208;2024-03-02T12:47:27;15.50;1.00
21811;DHT22;11067;48.788;9.208;2024-03-02T12:49:53;15.40;1.00
21811;DHT22;11067;48.788;9.208;2024-03-02T12:52:19;15.40;1.00
21811;DHT22;11067;48.788;9.208;2024-03-02T12:54:45;15.60;1.00
21811;DHT22;11067;48.788;9.208;2024-03-02T12:57:17;15.60;1.00
21811;DHT22;11067;48.788;9.208;2024-03-02T12:59:45;15.50;1.00
21811;DHT22;11067;48.788;9.208;2024-03-02T13:02:17;15.70;1.00
21811;DHT22;11067;48.788;9.208;2024-03-02T13:04:43;15.70;1.00
21811;DHT22;11067;48.788;9.208;2024-03-02T13:07:10;15.60;1.00
21811;DHT22;11067;48.788;9.208;2024-03-02T13:09:36;15.60;1.00
21811;DHT22;11067;48.788;9.208;2024-03-02T13:12:03;15.70;1.00
21811;DHT22;11067;48.788;9.208;2024-03-02T13:14:32;15.70;1.00
21811;DHT22;11067;48.788;9.208;2024-03-02T13:16:58;15.80;1.00
21811;DHT22;11067;48.788;9.208;2024-03-02T13:19:25;15.60;1.00
21811;DHT22;11067;48.788;9.208;2024-03-02T13:21:50;15.70;1.00
21811;DHT22;11067;48.788;9.208;2024-03-02T13:24:16;15.90;1.00
21811;DHT22;11067;48.788;9.208;2024-03-02T13:26:42;15.90;1.00
21811;DHT22;11067;48.788;9.208;2024-03-02T13:29:08;15.70;1.00
21811;DHT22;11067;48.788;9.208;2024-03-02T13:31:33;15.80;1.00
21811;DHT22;11067;48.788;9.208;2024-03-02T13:33:59;15.60;1.00
21811;DHT22;11067;48.788;9.208;2024-03-02T13:36:24;15.70;1.00
21811;DHT22;11067;48.788;9.208;2024-03-02T13:38:50;15.90;1.00
21811;DHT22;11067;48.788;9.208;2024-03-02T13:41:15;15.80;1.00
21811;DHT22;11067;48.788;9.208;2024-03-02T13:43:41;15.80;1.00
21811;DHT22;11067;48.788;9.208;2024-03-02T13:46:06;15.80;1.00
21811;DHT22;11067;48.788;9.208;2024-03-02T13:48:32;15.70;1.00
21811;DHT22;11067;48.788;9.208;2024-03-02T13:50:58;15.90;1.00
21811;DHT22;11067;48.788;9.208;2024-03-02T13:53:23;15.70;1.00
21811;DHT22;11067;48.788;9.208;2024-03-02T13:55:49;15.80;1.00
21811;DHT22;11067;48.788;9.208;2024-03-02T13:58:15;16.00;1.00
21811;DHT22;11067;48.788;9.208;2024-03-02T14:00:40;16.10;1.00
21811;DHT22;11067;48.788;9.208;2024-03-02T14:03:06;16.10;1.00
21811;DHT22;11067;48.788;9.208;2024-03-02T14:05:33;15.90;1.00
21811;DHT22;11067;48.788;9.208;2024-03-02T14:07:58;15.90;1.00
21811;DHT22;11067;48.788;9.208;2024-03-02T14:10:25;16.00;1.00
21811;DHT22;11067;48.788;9.208;2024-03-02T14:12:52;15.90;1.00
21811;DHT22;11067;48.788;9.208;2024-03-02T14:15:18;15.90;1.00
21811;DHT22;11067;48.788;9.208;2024-03-02T14:17:43;16.10;1.00
21811;DHT22;11067;48.788;9.208;2024-03-02T14:20:09;16.00;1.00
21811;DHT22;11067;48.788;9.208;2024-03-02T14:22:37;16.00;1.00
21811;DHT22;11067;48.788;9.208;2024-03-02T14:25:03;15.90;1.00
21811;DHT22;11067;48.788;9.208;2024-03-02T14:27:29;15.90;1.00
21811;DHT22;11067;48.788;9.208;2024-03-02T14:29:54;15.80;1.00
21811;DHT22;11067;48.788;9.208;2024-03-02T14:32:20;15.90;1.00
21811;DHT22;11067;48.788;9.208;2024-03-02T14:34:45;16.00;1.00
21811;DHT22;11067;48.788;9.208;2024-03-02T14:37:13;16.00;1.00
21811;DHT22;11067;48.788;9.208;2024-03-02T14:39:39;16.10;1.00
21811;DHT22;11067;48.788;9.208;2024-03-02T14:42:05;16.10;1.00
21811;DHT22;11067;48.788;9.208;2024-03-02T14:44:30;16.10;1.00
21811;DHT22;11067;48.788;9.208;2024-03-02T14:46:56;16.10;1.00
21811;DHT22;11067;48.788;9.208;2024-03-02T14:49:24;16.10;1.00
21811;DHT22;11067;48.788;9.208;2024-03-02T14:51:50;16.00;1.00
21811;DHT22;11067;48.788;9.208;2024-03-02T14:54:15;16.00;1.00
21811;DHT22;11067;48.788;9.208;2024-03-02T14:56:41;16.00;1.00
21811;DHT22;11067;48.788;9.208;2024-03-02T14:59:06;15.90;1.00
21811;DHT22;11067;48.788;9.208;2024-03-02T15:01:32;15.90;1.00
21811;DHT22;11067;48.788;9.208;2024-03-02T15:03:57;15.90;1.00
21811;DHT22;11067;48.788;9.208;2024-03-02T15:06:23;15.90;1.00
21811;DHT22;11067;48.788;9.208;2024-03-02T15:08:49;15.90;1.00
21811;DHT22;11067;48.788;9.208;2024-03-02T15:11:14;15.80;1.00
21811;DHT22;11067;48.788;9.208;2024-03-02T15:13:40;15.80;1.00
21811;DHT22;11067;48.788;9.208;2024-03-02T15:16:07;15.70;1.00
21811;DHT22;11067;48.788;9.208;2024-03-02T15:18:32;15.70;1.00
21811;DHT22;11067;48.788;9.208;2024-03-02T15:21:00;15.70;1.00
21811;DHT22;11067;48.788;9.208;2024-03-02T15:23:25;15.60;1.00
21811;DHT22;11067;48.788;9.208;2024-03-02T15:25:51;15.50;1.00
21811;DHT22;11067;48.788;9.208;2024-03-02T15:28:16;15.50;1.00
21811;DHT22;11067;48.788;9.208;2024-03-02T15:30:42;15.40;1.00
21811;DHT22;11067;48.788;9.208;2024-03-02T15:33:07;15.30;1.00
21811;DHT22;11067;48.788;9.208;2024-03-02T15:35:33;15.20;1.00
21811;DHT22;11067;48.788;9.208;2024-03-02T15:37:59;15.20;1.00
21811;DHT22;11067;48.788;9.208;2024-03-02T15:40:24;15.10;1.00
21811;DHT22;11067;48.788;9.208;2024-03-02T15:42:50;15.10;1.00
21811;DHT22;11067;48.788;9.208;2024-03-02T15:45:15;15.10;1.00
21811;DHT22;11067;48.788;9.208;2024-03-02T15:47:42;15.00;1.00